Time;durP1;ratioP1;P1;durP2;ratioP2;P2;SDS_P1;SDS_P2;PMS_P1;PMS_P2;Temp;Humidity;BMP_temperature;BMP_pressure;BME280_temperature;BME280_humidity;BME280_pressure;Samples;Min_cycle;Max_cycle;Signal;HPM_P1;HPM_P2
2022/12/29 00:01:20;;;;;;;;;;;;;;;20.43;54.15;100137.47;5022589;28;4150;-60
2022/12/29 00:03:46;;;;;;;;;;;;;;;20.42;54.32;100136.00;5021551;28;4249;-60
2022/12/29 00:06:13;;;;;;;;;;;;;;;20.42;54.18;100136.72;5025335;28;5190;-60
2022/12/29 00:08:39;;;;;;;;;;;;;;;20.41;54.10;100141.03;5023570;28;4192;-60
2022/12/29 00:11:08;;;;;;;;;;;;;;;20.40;54.23;100142.41;5022092;28;4229;-60
2022/12/29 00:16:19;;;;;;;;;;;;;;;20.40;54.15;100128.03;5022580;28;4026;-60
2022/12/29 00:18:45;;;;;;;;;;;;;;;20.40;54.04;100135.94;5017536;28;4184;-60
2022/12/29 00:35:08;;;;;;;;;;;;;;;20.36;54.12;100113.50;4998170;28;4262;-60
2022/12/29 00:45:54;;;;;;;;;;;;;;;20.34;53.93;100101.22;5009173;28;4088;-60
2022/12/29 00:51:06;;;;;;;;;;;;;;;20.36;54.38;100104.88;4987477;28;4186;-59
2022/12/29 00:53:33;;;;;;;;;;;;;;;20.36;54.51;100099.13;5021567;28;4237;-60
2022/12/29 00:55:59;;;;;;;;;;;;;;;20.34;54.53;100089.72;5021462;28;4089;-59
2022/12/29 00:58:29;;;;;;;;;;;;;;;20.33;54.42;100105.50;5004702;28;5696;-59
2022/12/29 01:01:02;;;;;;;;;;;;;;;20.33;54.43;100100.47;5019823;28;4098;-60
2022/12/29 01:03:29;;;;;;;;;;;;;;;20.33;54.31;100094.72;5016399;28;4252;-60
2022/12/29 01:05:55;;;;;;;;;;;;;;;20.32;54.30;100099.03;5021228;28;4324;-59
2022/12/29 01:08:21;;;;;;;;;;;;;;;20.31;54.18;100097.53;4997652;28;4139;-59
2022/12/29 01:10:57;;;;;;;;;;;;;;;20.30;54.50;100084.56;5021383;28;4150;-59
2022/12/29 01:13:23;;;;;;;;;;;;;;;20.30;54.15;100088.16;5021254;28;4100;-59
2022/12/29 01:15:50;;;;;;;;;;;;;;;20.30;54.17;100084.56;4996794;28;4236;-60
2022/12/29 01:18:17;;;;;;;;;;;;;;;20.29;54.12;100092.47;5003579;28;4175;-59
2022/12/29 01:20:43;;;;;;;;;;;;;;;20.28;54.26;100082.34;5002739;28;4210;-60
2022/12/29 01:23:10;;;;;;;;;;;;;;;20.28;54.37;100093.13;5018211;28;4234;-60
2022/12/29 01:25:36;;;;;;;;;;;;;;;20.26;54.16;100090.16;5020195;28;4158;-60
2022/12/29 01:28:02;;;;;;;;;;;;;;;20.27;54.05;100091.63;5016122;28;4138;-60
2022/12/29 01:30:29;;;;;;;;;;;;;;;20.27;54.19;100083.75;5025354;28;4211;-60
2022/12/29 01:32:55;;;;;;;;;;;;;;;20.27;54.05;100085.88;5016814;28;4286;-60
2022/12/29 01:35:21;;;;;;;;;;;;;;;20.26;54.16;100095.91;5019017;28;5223;-60
2022/12/29 01:37:48;;;;;;;;;;;;;;;20.26;54.07;100095.91;4995632;28;4114;-61
2022/12/29 01:40:14;;;;;;;;;;;;;;;20.27;54.12;100091.63;5012642;28;5273;-61
2022/12/29 01:42:40;;;;;;;;;;;;;;;20.28;54.40;100096.00;4996097;28;5468;-60
2022/12/29 01:45:10;;;;;;;;;;;;;;;20.30;54.58;100087.44;5015457;28;4166;-60
2022/12/29 01:47:38;;;;;;;;;;;;;;;20.28;54.66;100090.25;5023189;28;5200;-60
2022/12/29 01:50:25;;;;;;;;;;;;;;;20.28;54.42;100078.75;5004686;28;4228;-60
2022/12/29 01:52:56;;;;;;;;;;;;;;;20.27;54.55;100077.25;5018789;28;4183;-60
2022/12/29 01:55:22;;;;;;;;;;;;;;;20.25;54.42;100059.97;4988971;28;6678;-60
2022/12/29 01:57:49;;;;;;;;;;;;;;;20.24;54.41;100061.34;5004186;28;4163;-59
2022/12/29 02:00:15;;;;;;;;;;;;;;;20.24;54.31;100059.22;4987210;28;4131;-61
2022/12/29 02:02:47;;;;;;;;;;;;;;;20.23;54.32;100066.38;5021060;28;4116;-59
2022/12/29 02:05:15;;;;;;;;;;;;;;;20.25;54.47;100062.84;5017465;28;4226;-59
2022/12/29 02:07:43;;;;;;;;;;;;;;;20.25;54.59;100054.94;4984189;28;5682;-59
2022/12/29 02:10:10;;;;;;;;;;;;;;;20.23;54.38;100057.75;5021264;28;4188;-60
2022/12/29 02:12:36;;;;;;;;;;;;;;;20.24;54.36;100046.97;4996738;28;5348;-59
2022/12/29 02:15:03;;;;;;;;;;;;;;;20.23;54.40;100048.41;4994748;28;4068;-61
2022/12/29 02:17:34;;;;;;;;;;;;;;;20.22;54.38;100050.50;5021101;28;4026;-60
2022/12/29 02:20:35;;;;;;;;;;;;;;;20.22;54.43;100038.28;4996556;28;4018;-60
2022/12/29 02:23:11;;;;;;;;;;;;;;;20.21;54.47;100036.81;4952049;28;5126;-59
2022/12/29 02:25:44;;;;;;;;;;;;;;;20.22;54.49;100044.03;5012146;28;5179;-59
2022/12/29 02:28:14;;;;;;;;;;;;;;;20.21;54.64;100042.56;4978099;28;5317;-60
2022/12/29 02:30:54;;;;;;;;;;;;;;;20.20;54.39;100041.09;5016615;28;4146;-60
2022/12/29 02:33:30;;;;;;;;;;;;;;;20.19;54.47;100033.88;5001350;28;4108;-60
2022/12/29 02:36:09;;;;;;;;;;;;;;;20.18;54.29;100032.38;4997840;28;4202;-60
2022/12/29 02:38:48;;;;;;;;;;;;;;;20.17;54.39;100028.06;4995684;28;4135;-59
2022/12/29 02:41:21;;;;;;;;;;;;;;;20.17;54.35;100036.69;5019974;28;5190;-60
2022/12/29 02:43:54;;;;;;;;;;;;;;;20.14;54.45;100033.00;5018011;28;4169;-60
2022/12/29 02:46:39;;;;;;;;;;;;;;;20.15;54.23;100033.72;4991767;28;4146;-60
2022/12/29 02:49:07;;;;;;;;;;;;;;;20.13;54.36;100022.16;5001828;28;4176;-60
2022/12/29 02:51:52;;;;;;;;;;;;;;;20.12;54.26;100026.47;4986158;28;4238;-60
2022/12/29 02:57:09;;;;;;;;;;;;;;;20.11;54.16;100028.56;5002503;28;5099;-60
2022/12/29 02:59:35;;;;;;;;;;;;;;;20.11;54.02;100022.09;5009205;28;4250;-60
2022/12/29 03:05:07;;;;;;;;;;;;;;;20.12;53.78;100012.09;5030741;28;4124;-60
2022/12/29 03:07:39;;;;;;;;;;;;;;;20.11;53.85;99999.84;5023498;28;4173;-59
2022/12/29 03:10:13;;;;;;;;;;;;;;;20.09;53.99;100002.66;5023189;28;4100;-60
2022/12/29 03:18:21;;;;;;;;;;;;;;;20.08;53.81;100001.19;4998296;28;4133;-60
2022/12/29 03:21:00;;;;;;;;;;;;;;;20.08;53.90;99989.69;4997846;28;4050;-60
2022/12/29 03:23:26;;;;;;;;;;;;;;;20.08;53.85;99981.78;4997591;28;4144;-60
2022/12/29 03:25:54;;;;;;;;;;;;;;;20.07;53.78;99983.19;4990022;28;4211;-60
2022/12/29 03:28:22;;;;;;;;;;;;;;;20.06;53.91;99986.72;4979156;28;4062;-59
2022/12/29 03:30:48;;;;;;;;;;;;;;;20.06;53.77;99987.47;4997507;28;4193;-60
2022/12/29 03:33:21;;;;;;;;;;;;;;;20.07;53.61;99982.47;5002801;28;4274;-59
2022/12/29 03:35:48;;;;;;;;;;;;;;;20.07;53.67;99988.94;5000355;28;4207;-60
2022/12/29 03:38:18;;;;;;;;;;;;;;;20.06;53.71;99975.25;4995377;28;4037;-60
2022/12/29 03:40:48;;;;;;;;;;;;;;;20.04;53.74;99984.53;5006751;28;4068;-60
2022/12/29 03:43:15;;;;;;;;;;;;;;;20.05;53.73;99991.75;4982993;28;4017;-60
2022/12/29 03:45:41;;;;;;;;;;;;;;;20.06;53.63;100001.09;5000679;28;4950;-60
2022/12/29 03:48:08;;;;;;;;;;;;;;;20.07;53.55;100003.31;5004111;28;4032;-60
2022/12/29 03:50:37;;;;;;;;;;;;;;;20.08;53.51;99996.16;5004667;28;4308;-60
2022/12/29 03:53:04;;;;;;;;;;;;;;;20.11;53.54;99999.09;5005155;28;4178;-60
2022/12/29 03:55:30;;;;;;;;;;;;;;;20.13;53.47;100002.03;5022230;28;5407;-60
2022/12/29 03:57:57;;;;;;;;;;;;;;;20.15;53.71;99999.97;4984295;28;4033;-60
2022/12/29 04:00:43;;;;;;;;;;;;;;;20.17;53.62;99990.69;5016908;28;4140;-60
2022/12/29 04:03:10;;;;;;;;;;;;;;;20.18;53.55;99981.41;4997960;28;5368;-59
2022/12/29 04:05:36;;;;;;;;;;;;;;;20.20;53.51;99977.84;4998707;28;4180;-60
2022/12/29 04:08:03;;;;;;;;;;;;;;;20.20;53.53;99977.84;5006406;28;4118;-60
2022/12/29 04:10:29;;;;;;;;;;;;;;;20.21;53.39;99976.47;5022711;28;4171;-60
2022/12/29 04:12:59;;;;;;;;;;;;;;;20.22;53.49;99972.16;5021346;28;4305;-60
2022/12/29 04:15:26;;;;;;;;;;;;;;;20.22;53.51;99977.91;5022263;28;4128;-59
2022/12/29 04:17:56;;;;;;;;;;;;;;;20.22;53.39;99987.28;5000475;28;4414;-60
2022/12/29 04:23:08;;;;;;;;;;;;;;;20.23;53.30;99979.41;4996861;28;5580;-60
2022/12/29 04:25:36;;;;;;;;;;;;;;;20.23;53.31;99985.88;5004116;28;4209;-60
2022/12/29 04:28:02;;;;;;;;;;;;;;;20.23;53.33;99973.66;4992607;28;4253;-60
2022/12/29 04:30:52;;;;;;;;;;;;;;;20.24;53.42;99957.88;5006584;28;4184;-60
2022/12/29 04:33:33;;;;;;;;;;;;;;;20.24;53.45;99966.50;5004789;28;5230;-60
2022/12/29 04:36:00;;;;;;;;;;;;;;;20.26;53.59;99966.56;5001525;28;4204;-60
2022/12/29 04:38:27;;;;;;;;;;;;;;;20.26;53.33;99958.66;4999121;28;4212;-60
2022/12/29 04:40:53;;;;;;;;;;;;;;;20.25;53.27;99957.19;5025490;28;4307;-60
2022/12/29 04:43:22;;;;;;;;;;;;;;;20.26;53.45;99958.66;4997712;28;4212;-60
2022/12/29 04:46:07;;;;;;;;;;;;;;;20.27;53.38;99947.88;5022803;28;4358;-60
2022/12/29 04:48:41;;;;;;;;;;;;;;;20.24;53.39;99949.97;4998674;28;4191;-60
2022/12/29 04:51:25;;;;;;;;;;;;;;;20.25;53.44;99947.84;5021857;28;5251;-60
2022/12/29 04:53:51;;;;;;;;;;;;;;;20.25;53.41;99956.47;4997860;28;4173;-60
2022/12/29 04:56:17;;;;;;;;;;;;;;;20.25;53.33;99950.72;5005121;28;5374;-60
2022/12/29 04:58:44;;;;;;;;;;;;;;;20.24;53.37;99952.13;5006457;28;4137;-60
2022/12/29 05:01:12;;;;;;;;;;;;;;;20.25;53.41;99965.09;5007285;28;4438;-61
2022/12/29 05:03:39;;;;;;;;;;;;;;;20.24;53.57;99943.50;5025494;28;4042;-59
2022/12/29 05:06:05;;;;;;;;;;;;;;;20.22;53.39;99947.03;5005091;28;5196;-60
2022/12/29 05:08:33;;;;;;;;;;;;;;;20.22;53.48;99957.78;5004385;28;4074;-59
2022/12/29 05:11:01;;;;;;;;;;;;;;;20.22;53.29;99949.16;4999800;28;4260;-60
2022/12/29 05:13:27;;;;;;;;;;;;;;;20.21;53.59;99936.94;5022496;28;4025;-60
2022/12/29 05:15:54;;;;;;;;;;;;;;;20.21;53.56;99933.34;4999217;28;4125;-60
2022/12/29 05:18:22;;;;;;;;;;;;;;;20.20;53.35;99938.38;4997639;28;4165;-59
2022/12/29 05:20:49;;;;;;;;;;;;;;;20.21;53.57;99936.22;5021943;28;4224;-59
2022/12/29 05:23:16;;;;;;;;;;;;;;;20.20;53.61;99931.84;4998415;28;3941;-60
2022/12/29 05:25:48;;;;;;;;;;;;;;;20.20;53.55;99931.84;5000097;28;4350;-59
2022/12/29 05:28:17;;;;;;;;;;;;;;;20.19;53.32;99931.13;4998957;28;4142;-60
2022/12/29 05:31:06;;;;;;;;;;;;;;;20.18;53.35;99923.94;5001369;28;4937;-59
2022/12/29 05:33:32;;;;;;;;;;;;;;;20.18;53.33;99928.91;5019018;28;4041;-60
2022/12/29 05:36:08;;;;;;;;;;;;;;;20.18;53.62;99918.19;4998648;28;4141;-59
2022/12/29 05:38:37;;;;;;;;;;;;;;;20.18;53.61;99923.16;4997281;28;6423;-60
2022/12/29 05:41:04;;;;;;;;;;;;;;;20.16;53.50;99918.09;5004034;28;5302;-60
2022/12/29 05:44:01;;;;;;;;;;;;;;;20.16;53.53;99920.22;5004335;28;5149;-60
2022/12/29 05:46:30;;;;;;;;;;;;;;;20.15;53.57;99921.63;4995854;28;5312;-59
2022/12/29 05:49:17;;;;;;;;;;;;;;;20.15;53.45;99933.13;5020988;28;4213;-60
2022/12/29 05:52:02;;;;;;;;;;;;;;;20.13;53.38;99922.31;5020329;28;4154;-61
2022/12/29 05:54:31;;;;;;;;;;;;;;;20.13;53.35;99910.06;5005367;28;4346;-60
2022/12/29 05:56:57;;;;;;;;;;;;;;;20.13;53.42;99910.06;5002472;28;4221;-60
2022/12/29 05:59:24;;;;;;;;;;;;;;;20.12;53.34;99903.59;4996422;28;4749;-60
2022/12/29 06:01:51;;;;;;;;;;;;;;;20.13;53.25;99901.44;5003645;28;4112;-60
2022/12/29 06:04:18;;;;;;;;;;;;;;;20.13;53.24;99898.56;5002405;28;4152;-60
2022/12/29 06:06:46;;;;;;;;;;;;;;;20.13;53.27;99910.81;5004233;28;4074;-60
2022/12/29 06:09:21;;;;;;;;;;;;;;;20.15;53.28;99910.16;5025969;28;5292;-60
2022/12/29 06:11:47;;;;;;;;;;;;;;;20.14;53.39;99912.28;5003908;28;5267;-60
2022/12/29 06:14:13;;;;;;;;;;;;;;;20.15;53.44;99901.53;4995492;28;4182;-60
2022/12/29 06:16:41;;;;;;;;;;;;;;;20.16;53.26;99900.84;5017333;28;4023;-60
2022/12/29 06:19:10;;;;;;;;;;;;;;;20.17;53.31;99898.72;5002724;28;5220;-60
2022/12/29 06:21:37;;;;;;;;;;;;;;;20.18;53.41;99912.44;5020784;28;4279;-60
2022/12/29 06:24:04;;;;;;;;;;;;;;;20.19;53.17;99908.13;4996824;28;4877;-60
2022/12/29 06:26:32;;;;;;;;;;;;;;;20.20;53.22;99917.47;4995662;28;4726;-59
2022/12/29 06:28:59;;;;;;;;;;;;;;;20.22;53.14;99911.81;4996925;28;4313;-59
2022/12/29 06:31:25;;;;;;;;;;;;;;;20.21;53.17;99902.44;5003731;28;4995;-59
2022/12/29 06:33:52;;;;;;;;;;;;;;;20.21;53.17;99916.81;5001601;28;5297;-61
2022/12/29 06:36:18;;;;;;;;;;;;;;;20.22;53.09;99917.56;4995815;28;5672;-61
2022/12/29 06:38:45;;;;;;;;;;;;;;;20.21;53.06;99916.09;4995090;28;5368;-61
2022/12/29 06:41:11;;;;;;;;;;;;;;;20.21;53.16;99904.59;4996381;28;4147;-62
2022/12/29 06:43:56;;;;;;;;;;;;;;;20.21;53.11;99916.09;5017752;28;4225;-62
2022/12/29 06:46:35;;;;;;;;;;;;;;;20.20;53.19;99915.38;5021514;28;5234;-62
2022/12/29 06:49:01;;;;;;;;;;;;;;;20.22;53.41;99923.31;5017065;28;4180;-61
2022/12/29 06:51:28;;;;;;;;;;;;;;;20.20;53.22;99920.34;5019790;28;4248;-62
2022/12/29 06:53:54;;;;;;;;;;;;;;;20.21;53.27;99936.22;5020920;28;4062;-61
2022/12/29 06:56:20;;;;;;;;;;;;;;;20.22;53.20;99937.69;5022823;28;4125;-61
2022/12/29 06:58:47;;;;;;;;;;;;;;;20.22;53.28;99935.53;5022025;28;5321;-61
2022/12/29 07:01:13;;;;;;;;;;;;;;;20.22;53.30;99934.81;5018864;28;5271;-62
2022/12/29 07:03:41;;;;;;;;;;;;;;;20.23;53.18;99936.28;5020194;28;5192;-61
2022/12/29 07:06:07;;;;;;;;;;;;;;;20.23;53.14;99937.00;5020041;28;4206;-62
2022/12/29 07:08:33;;;;;;;;;;;;;;;20.25;53.07;99944.97;5015796;28;5367;-61
2022/12/29 07:11:00;;;;;;;;;;;;;;;20.25;53.07;99950.72;5022058;28;5155;-61
2022/12/29 07:13:26;;;;;;;;;;;;;;;20.20;53.17;99947.00;5024290;28;4161;-60
2022/12/29 07:15:53;;;;;;;;;;;;;;;20.14;52.97;99946.06;5020801;28;4221;-62
2022/12/29 07:18:19;;;;;;;;;;;;;;;20.20;52.64;99937.59;5019321;28;4108;-61
2022/12/29 07:20:45;;;;;;;;;;;;;;;20.22;52.88;99940.56;5020792;28;5201;-61
2022/12/29 07:23:12;;;;;;;;;;;;;;;20.25;53.13;99939.22;5020313;28;4138;-62
2022/12/29 07:25:40;;;;;;;;;;;;;;;20.24;53.20;99934.88;5019337;28;4136;-61
2022/12/29 07:28:06;;;;;;;;;;;;;;;20.23;53.17;99930.53;5020924;28;4121;-61
2022/12/29 07:30:33;;;;;;;;;;;;;;;20.24;53.15;99932.00;5019456;28;6298;-61
2022/12/29 07:32:59;;;;;;;;;;;;;;;20.23;53.48;99939.16;5019771;28;4219;-61
2022/12/29 07:35:26;;;;;;;;;;;;;;;20.23;53.51;99930.53;5018747;28;4187;-61
2022/12/29 07:37:52;;;;;;;;;;;;;;;20.22;53.30;99926.19;5012456;28;4471;-61
2022/12/29 07:40:18;;;;;;;;;;;;;;;20.21;53.47;99933.34;5015625;28;4330;-62
2022/12/29 07:42:45;;;;;;;;;;;;;;;20.22;53.39;99931.94;5023302;28;5283;-62
2022/12/29 07:45:14;;;;;;;;;;;;;;;20.21;53.28;99936.94;4999918;28;4227;-62
2022/12/29 07:47:49;;;;;;;;;;;;;;;20.21;53.37;99930.47;5024679;28;4175;-62
2022/12/29 07:50:15;;;;;;;;;;;;;;;20.22;53.58;99929.06;5023137;28;4138;-62
2022/12/29 07:52:41;;;;;;;;;;;;;;;20.21;53.53;99933.34;5020569;28;4224;-62
2022/12/29 07:55:08;;;;;;;;;;;;;;;20.22;53.40;99938.41;5025101;28;4137;-62
2022/12/29 07:57:35;;;;;;;;;;;;;;;20.23;53.38;99921.91;5024422;28;4201;-61
2022/12/29 08:00:01;;;;;;;;;;;;;;;20.22;53.43;99924.03;5026011;28;5182;-61
2022/12/29 08:02:37;;;;;;;;;;;;;;;20.25;53.65;99919.09;5027088;28;4441;-61
2022/12/29 08:05:03;;;;;;;;;;;;;;;20.25;53.45;99925.59;5024190;28;4155;-61
2022/12/29 08:07:30;;;;;;;;;;;;;;;20.26;53.52;99920.56;5017936;28;5183;-61
2022/12/29 08:09:57;;;;;;;;;;;;;;;20.26;53.57;99917.69;5022036;28;4246;-60
2022/12/29 08:12:23;;;;;;;;;;;;;;;20.21;53.55;99921.84;5024090;28;4153;-60
2022/12/29 08:14:49;;;;;;;;;;;;;;;20.15;52.53;99936.75;5021086;28;4078;-61
2022/12/29 08:17:16;;;;;;;;;;;;;;;20.04;52.07;99941.44;5022085;28;4026;-61
2022/12/29 08:19:42;;;;;;;;;;;;;;;19.96;52.16;99929.66;5013168;28;4129;-61
2022/12/29 08:22:08;;;;;;;;;;;;;;;20.01;50.68;99928.38;5018955;28;4197;-61
2022/12/29 08:24:35;;;;;;;;;;;;;;;19.93;51.63;99939.63;5018467;28;4120;-65
2022/12/29 08:27:01;;;;;;;;;;;;;;;19.92;50.93;99932.41;5011526;28;5492;-65
2022/12/29 08:29:41;;;;;;;;;;;;;;;19.96;50.42;99918.16;5017697;28;4121;-64
2022/12/29 08:32:07;;;;;;;;;;;;;;;20.01;49.94;99921.91;5015167;28;4196;-67
2022/12/29 08:34:34;;;;;;;;;;;;;;;20.11;50.44;99930.13;5020395;28;5130;-66
2022/12/29 08:37:00;;;;;;;;;;;;;;;20.18;49.93;99923.16;5018415;28;4163;-64
2022/12/29 08:42:39;;;;;;;;;;;;;;;19.33;48.78;99927.47;5019930;28;4154;-64
2022/12/29 08:45:05;;;;;;;;;;;;;;;19.65;47.94;99933.59;5023439;28;4173;-65
2022/12/29 08:47:32;;;;;;;;;;;;;;;19.85;47.85;99913.50;5023635;28;4258;-64
2022/12/29 08:49:59;;;;;;;;;;;;;;;19.97;48.49;99919.63;5025034;28;6440;-65
2022/12/29 08:52:25;;;;;;;;;;;;;;;20.01;49.00;99916.91;5024840;28;4217;-65
2022/12/29 08:54:51;;;;;;;;;;;;;;;20.06;49.33;99920.63;5025515;28;4184;-65
2022/12/29 08:57:19;;;;;;;;;;;;;;;20.08;49.48;99921.44;5007514;28;5458;-65
2022/12/29 08:59:57;;;;;;;;;;;;;;;20.09;49.69;99899.94;5003705;28;4094;-65
2022/12/29 09:02:23;;;;;;;;;;;;;;;20.12;49.82;99894.25;5007726;28;4143;-65
2022/12/29 09:04:50;;;;;;;;;;;;;;;20.12;50.02;99909.34;5024701;28;4156;-64
2022/12/29 09:07:17;;;;;;;;;;;;;;;20.12;50.15;99906.47;5017713;28;5192;-64
2022/12/29 09:09:43;;;;;;;;;;;;;;;20.13;50.34;99898.56;5025731;28;4261;-65
2022/12/29 09:12:10;;;;;;;;;;;;;;;20.14;50.29;99905.81;5025594;28;5250;-64
2022/12/29 09:14:36;;;;;;;;;;;;;;;20.14;50.23;99894.31;5018502;28;4522;-64
2022/12/29 09:19:47;;;;;;;;;;;;;;;20.13;50.54;99893.56;5020262;28;5373;-64
2022/12/29 09:22:14;;;;;;;;;;;;;;;20.14;50.58;99906.53;5020356;28;4061;-65
2022/12/29 09:24:40;;;;;;;;;;;;;;;20.15;50.54;99901.53;5024794;28;3996;-65
2022/12/29 09:27:06;;;;;;;;;;;;;;;20.15;50.67;99901.53;5025147;28;4104;-64
2022/12/29 09:29:33;;;;;;;;;;;;;;;20.15;50.58;99907.28;5022399;28;4097;-64
2022/12/29 09:31:59;;;;;;;;;;;;;;;20.14;50.57;99900.78;5024098;28;4158;-65
2022/12/29 09:34:25;;;;;;;;;;;;;;;20.14;50.57;99895.03;5025141;28;4241;-64
2022/12/29 09:36:52;;;;;;;;;;;;;;;20.14;50.78;99894.31;5022621;28;4190;-65
2022/12/29 09:39:18;;;;;;;;;;;;;;;20.14;50.72;99895.03;5024783;28;4136;-64
2022/12/29 09:41:49;;;;;;;;;;;;;;;20.15;50.74;99890.03;5019923;28;4204;-65
2022/12/29 09:44:17;;;;;;;;;;;;;;;20.15;50.76;99884.28;4997797;28;5656;-65
2022/12/29 09:46:45;;;;;;;;;;;;;;;20.15;50.91;99884.28;4999137;28;4002;-65
2022/12/29 09:49:16;;;;;;;;;;;;;;;20.15;50.77;99884.28;5021563;28;4018;-65
2022/12/29 09:51:43;;;;;;;;;;;;;;;20.15;50.85;99895.78;5008139;28;4185;-66
2022/12/29 09:54:12;;;;;;;;;;;;;;;20.16;51.02;99891.47;5007131;28;5174;-65
2022/12/29 09:56:38;;;;;;;;;;;;;;;20.17;51.02;99904.47;5023898;28;4075;-65
2022/12/29 09:59:10;;;;;;;;;;;;;;;20.18;50.78;99894.41;5020431;28;4095;-66
2022/12/29 10:01:39;;;;;;;;;;;;;;;20.19;50.85;99895.91;5019547;28;4201;-65
2022/12/29 10:04:05;;;;;;;;;;;;;;;20.21;50.88;99895.97;5004050;28;4154;-65
2022/12/29 10:06:38;;;;;;;;;;;;;;;20.20;51.00;99897.38;5021805;28;4019;-65
2022/12/29 10:09:33;;;;;;;;;;;;;;;20.20;50.94;99903.13;5020350;28;5420;-65
2022/12/29 10:12:14;;;;;;;;;;;;;;;20.20;51.01;99909.63;4992550;28;5457;-66
2022/12/29 10:14:51;;;;;;;;;;;;;;;19.96;49.94;99895.19;5015260;28;4039;-66
2022/12/29 10:17:36;;;;;;;;;;;;;;;19.87;50.83;99893.44;5018220;28;4297;-65
2022/12/29 10:20:24;;;;;;;;;;;;;;;20.04;50.20;99897.56;5023231;28;4180;-65
2022/12/29 10:22:55;;;;;;;;;;;;;;;20.12;50.10;99891.38;4999666;28;4409;-70
2022/12/29 10:25:22;;;;;;;;;;;;;;;20.13;50.03;99887.81;5018372;28;4297;-66
2022/12/29 10:27:53;;;;;;;;;;;;;;;20.12;50.47;99877.00;5020986;28;4180;-65
2022/12/29 10:30:20;;;;;;;;;;;;;;;19.89;49.42;99882.03;5001611;28;5452;-66
2022/12/29 10:32:50;;;;;;;;;;;;;;;20.01;49.78;99882.41;5024195;28;4124;-64
2022/12/29 10:35:20;;;;;;;;;;;;;;;19.99;49.68;99873.72;5005978;28;4169;-63
2022/12/29 10:37:57;;;;;;;;;;;;;;;20.16;49.09;99888.59;5022447;28;4537;-66
2022/12/29 10:40:28;;;;;;;;;;;;;;;20.12;49.95;99891.38;5002025;28;4230;-63
2022/12/29 10:42:57;;;;;;;;;;;;;;;20.18;49.55;99880.06;4997058;28;4695;-65
2022/12/29 10:45:25;;;;;;;;;;;;;;;20.20;49.79;99874.38;5021257;28;4454;-65
2022/12/29 10:47:53;;;;;;;;;;;;;;;20.21;50.30;99875.84;4981319;28;4161;-65
2022/12/29 10:50:19;;;;;;;;;;;;;;;20.20;50.53;99880.13;5022063;28;4406;-63
2022/12/29 10:52:46;;;;;;;;;;;;;;;19.98;50.53;99888.78;4997967;28;4195;-64
2022/12/29 10:55:13;;;;;;;;;;;;;;;20.06;50.09;99877.53;5020952;28;4352;-66
2022/12/29 10:57:40;;;;;;;;;;;;;;;20.15;50.57;99869.91;4998522;28;4445;-65
2022/12/29 11:00:14;;;;;;;;;;;;;;;20.17;51.12;99881.47;5003812;28;4453;-64
2022/12/29 11:02:57;;;;;;;;;;;;;;;20.20;51.25;99885.88;5022543;28;4415;-64
2022/12/29 11:05:40;;;;;;;;;;;;;;;20.17;51.22;99892.97;5022977;28;4188;-67
2022/12/29 11:08:11;;;;;;;;;;;;;;;20.11;51.24;99895.63;5019025;28;4095;-64
2022/12/29 11:10:42;;;;;;;;;;;;;;;20.17;51.37;99893.69;4999566;28;4194;-64
2022/12/29 11:13:17;;;;;;;;;;;;;;;20.20;51.46;99900.25;5021517;28;4083;-63
2022/12/29 11:15:43;;;;;;;;;;;;;;;20.20;51.74;99897.38;5023781;28;4192;-63
2022/12/29 11:18:20;;;;;;;;;;;;;;;20.19;51.96;99884.41;5020878;28;4014;-63
2022/12/29 11:20:46;;;;;;;;;;;;;;;20.21;52.00;99898.84;5024639;28;4967;-63
2022/12/29 11:23:21;;;;;;;;;;;;;;;20.20;51.87;99898.13;5021033;28;4301;-63
2022/12/29 11:26:04;;;;;;;;;;;;;;;20.22;52.02;99903.91;5023752;28;3978;-64
2022/12/29 11:28:33;;;;;;;;;;;;;;;20.23;51.89;99905.41;4998178;28;4272;-63
2022/12/29 11:31:00;;;;;;;;;;;;;;;20.24;51.67;99891.75;5022699;28;4092;-66
2022/12/29 11:33:29;;;;;;;;;;;;;;;20.24;51.70;99895.34;5020894;28;4297;-65
2022/12/29 11:36:00;;;;;;;;;;;;;;;20.27;51.75;99896.16;5024703;28;3997;-65
2022/12/29 11:38:29;;;;;;;;;;;;;;;20.28;51.82;99909.13;5020006;28;4147;-63
2022/12/29 11:40:55;;;;;;;;;;;;;;;20.27;51.63;99901.91;5022898;28;4210;-65
2022/12/29 11:43:23;;;;;;;;;;;;;;;20.27;51.78;99901.91;5026337;28;5304;-64
2022/12/29 11:45:50;;;;;;;;;;;;;;;20.27;51.97;99907.66;5025483;28;4135;-63
2022/12/29 11:48:16;;;;;;;;;;;;;;;20.27;51.99;99902.66;5002327;28;4343;-65
2022/12/29 11:50:43;;;;;;;;;;;;;;;20.29;51.70;99896.22;5026284;28;5167;-63
2022/12/29 11:53:15;;;;;;;;;;;;;;;20.28;52.00;99894.75;5003221;28;5567;-63
2022/12/29 11:55:49;;;;;;;;;;;;;;;20.27;51.98;99896.16;5023663;28;5425;-63
2022/12/29 11:58:16;;;;;;;;;;;;;;;20.27;52.23;99907.66;5000758;28;4463;-65
2022/12/29 12:00:42;;;;;;;;;;;;;;;20.27;52.22;99919.16;4996444;28;4124;-65
2022/12/29 12:03:21;;;;;;;;;;;;;;;20.27;51.94;99916.28;5020570;28;4158;-66
2022/12/29 12:05:57;;;;;;;;;;;;;;;20.24;52.02;99920.50;4994124;28;5382;-65
2022/12/29 12:08:34;;;;;;;;;;;;;;;20.28;52.20;99920.63;5002566;28;5076;-68
2022/12/29 12:11:05;;;;;;;;;;;;;;;20.32;52.47;99932.25;4993931;28;5282;-67
2022/12/29 12:13:47;;;;;;;;;;;;;;;20.35;52.34;99930.91;5016144;28;4099;-67
2022/12/29 12:16:18;;;;;;;;;;;;;;;20.32;52.35;99923.63;4980229;28;4391;-67
2022/12/29 12:18:53;;;;;;;;;;;;;;;20.32;52.44;99920.75;4982933;28;4567;-67
2022/12/29 12:21:32;;;;;;;;;;;;;;;20.34;52.30;99931.56;5021202;28;4232;-67
2022/12/29 12:24:18;;;;;;;;;;;;;;;20.33;52.44;99916.47;5002788;28;4502;-67
2022/12/29 12:26:52;;;;;;;;;;;;;;;20.34;52.52;99917.19;5019271;28;4235;-66
2022/12/29 12:29:25;;;;;;;;;;;;;;;20.32;52.53;99920.75;5020925;28;4247;-66
2022/12/29 12:31:53;;;;;;;;;;;;;;;20.33;52.70;99916.47;5022254;28;4034;-66
2022/12/29 12:34:24;;;;;;;;;;;;;;;20.34;52.82;99917.19;5019452;28;4213;-66
2022/12/29 12:37:05;;;;;;;;;;;;;;;20.33;52.70;99915.75;5014673;28;4173;-66
2022/12/29 12:39:44;;;;;;;;;;;;;;;20.33;52.95;99922.22;5021415;28;4100;-66
2022/12/29 12:42:24;;;;;;;;;;;;;;;20.33;53.18;99916.47;5021687;28;4111;-66
2022/12/29 12:45:11;;;;;;;;;;;;;;;20.34;53.60;99915.09;5002366;28;4107;-66
2022/12/29 12:47:42;;;;;;;;;;;;;;;20.35;53.66;99912.94;5022423;28;4173;-65
2022/12/29 12:50:41;;;;;;;;;;;;;;;20.36;53.62;99920.88;4995447;28;4195;-66
2022/12/29 12:53:16;;;;;;;;;;;;;;;20.39;53.76;99913.06;4985750;28;4140;-64
2022/12/29 12:55:48;;;;;;;;;;;;;;;20.39;53.57;99928.16;5016873;28;5250;-65
2022/12/29 12:58:21;;;;;;;;;;;;;;;20.38;53.88;99935.31;5017960;28;4204;-64
2022/12/29 13:00:51;;;;;;;;;;;;;;;20.40;53.93;99921.00;4993226;28;4223;-65
2022/12/29 13:03:29;;;;;;;;;;;;;;;20.40;54.13;99921.00;5019547;28;4248;-65
2022/12/29 13:06:14;;;;;;;;;;;;;;;20.42;54.02;99923.94;5005599;28;4110;-65
2022/12/29 13:08:59;;;;;;;;;;;;;;;20.43;53.77;99913.16;5012844;28;4130;-66
2022/12/29 13:11:31;;;;;;;;;;;;;;;20.39;53.86;99918.81;4998222;28;4415;-65
2022/12/29 13:14:13;;;;;;;;;;;;;;;20.35;54.20;99925.16;5017882;28;4159;-66
2022/12/29 13:16:48;;;;;;;;;;;;;;;20.38;54.15;99929.56;5012947;28;4079;-72
2022/12/29 13:19:24;;;;;;;;;;;;;;;20.40;53.88;99914.53;5016736;28;4090;-67
2022/12/29 13:22:20;;;;;;;;;;;;;;;20.40;54.19;99920.28;4999394;28;4185;-64
2022/12/29 13:24:48;;;;;;;;;;;;;;;20.40;54.25;99932.50;5017739;28;4204;-64
2022/12/29 13:27:27;;;;;;;;;;;;;;;20.28;53.18;99929.25;5010712;28;3957;-63
2022/12/29 13:30:18;;;;;;;;;;;;;;;19.80;52.47;99932.00;4992650;28;3951;-64
2022/12/29 13:32:49;;;;;;;;;;;;;;;20.00;52.10;99941.31;5001849;28;4248;-64
2022/12/29 13:35:34;;;;;;;;;;;;;;;20.14;52.93;99934.56;5002203;28;5267;-64
2022/12/29 13:38:03;;;;;;;;;;;;;;;20.21;52.96;99921.84;5023562;28;4159;-64
2022/12/29 13:40:34;;;;;;;;;;;;;;;20.25;53.12;99921.97;4998154;28;4250;-64
2022/12/29 13:43:00;;;;;;;;;;;;;;;20.25;53.10;99922.72;5020047;28;3983;-64
2022/12/29 13:45:28;;;;;;;;;;;;;;;20.27;53.27;99924.91;4998502;28;4107;-63
2022/12/29 13:47:55;;;;;;;;;;;;;;;20.27;53.24;99922.03;4997499;28;4155;-64
2022/12/29 13:50:22;;;;;;;;;;;;;;;20.26;53.29;99932.78;5020299;28;4087;-63
2022/12/29 13:52:58;;;;;;;;;;;;;;;20.26;53.28;99923.44;5003788;28;4175;-64
2022/12/29 13:55:26;;;;;;;;;;;;;;;20.27;53.39;99922.03;5021041;28;4252;-64
2022/12/29 13:57:55;;;;;;;;;;;;;;;20.26;53.57;99934.94;4999848;28;5390;-64
2022/12/29 14:00:22;;;;;;;;;;;;;;;20.27;53.37;99939.28;4998866;28;4297;-64